createdAt,value
2023-05-22T00:00:26.586Z,9.70
2023-05-22T00:05:49.144Z,6.70
2023-05-22T00:10:51.745Z,8.10
2023-05-22T00:15:54.477Z,10.80
2023-05-22T00:20:58.070Z,8.90
2023-05-22T00:26:01.240Z,13.70
2023-05-22T00:31:04.130Z,9.10
2023-05-22T00:36:07.113Z,14.60
2023-05-22T00:41:09.848Z,12.70
2023-05-22T00:46:12.717Z,9.20
2023-05-22T00:51:15.608Z,12.90
2023-05-22T00:56:18.934Z,13.70
2023-05-22T01:01:23.121Z,12.60
2023-05-22T01:06:26.272Z,10.50
2023-05-22T01:11:37.660Z,11.30
2023-05-22T01:16:59.730Z,18.20
2023-05-22T01:22:35.747Z,8.00
2023-05-22T01:28:11.872Z,9.60
2023-05-22T01:33:17.232Z,13.20
2023-05-22T01:38:20.263Z,9.80
2023-05-22T01:43:22.996Z,8.80
2023-05-22T01:48:25.631Z,7.90
2023-05-22T01:53:42.165Z,9.90
2023-05-22T01:58:59.032Z,8.50
2023-05-22T02:04:03.089Z,10.70
2023-05-22T02:09:07.850Z,7.20
2023-05-22T02:14:12.231Z,11.60
2023-05-22T02:19:15.258Z,9.20
2023-05-22T02:24:18.031Z,7.20
2023-05-22T02:29:20.608Z,11.30
2023-05-22T02:34:23.314Z,9.40
2023-05-22T02:39:29.807Z,8.20
2023-05-22T02:44:32.363Z,11.80
2023-05-22T02:49:35.440Z,8.20
2023-05-22T02:54:38.011Z,8.10
2023-05-22T02:59:40.580Z,7.50
2023-05-22T03:04:43.196Z,8.50
2023-05-22T03:09:45.769Z,10.80
2023-05-22T03:14:48.341Z,8.00
2023-05-22T03:19:50.999Z,11.60
2023-05-22T03:24:53.602Z,10.40
2023-05-22T03:29:56.250Z,15.30
2023-05-22T03:34:58.877Z,16.10
2023-05-22T03:40:01.528Z,14.20
2023-05-22T03:45:05.102Z,13.60
2023-05-22T03:50:08.213Z,9.30
2023-05-22T03:55:11.013Z,10.30
2023-05-22T04:00:14.282Z,9.90
2023-05-22T04:05:16.990Z,10.30
2023-05-22T04:10:22.714Z,14.60
2023-05-22T04:20:28.078Z,10.60
2023-05-22T04:25:31.723Z,8.00
2023-05-22T04:30:34.413Z,9.80
2023-05-22T04:35:37.053Z,11.10
2023-05-22T04:40:40.001Z,11.90
2023-05-22T04:45:43.406Z,13.40
2023-05-22T04:50:46.358Z,10.10
2023-05-22T04:55:49.227Z,13.70
2023-05-22T05:00:52.624Z,12.50
2023-05-22T05:05:56.689Z,12.50
2023-05-22T05:10:59.345Z,15.40
2023-05-22T05:16:02.092Z,12.70
2023-05-22T05:21:04.998Z,21.90
2023-05-22T05:26:07.559Z,15.70
2023-05-22T05:31:10.242Z,12.50
2023-05-22T05:36:13.205Z,18.80
2023-05-22T05:41:15.902Z,12.10
2023-05-22T05:46:19.568Z,11.70
2023-05-22T05:51:22.301Z,12.30
2023-05-22T05:56:24.917Z,14.70
2023-05-22T06:01:27.595Z,10.70
2023-05-22T06:06:36.112Z,20.90
2023-05-22T06:11:38.766Z,16.30
2023-05-22T06:16:41.724Z,18.80
2023-05-22T06:21:44.376Z,13.50
2023-05-22T06:26:46.969Z,14.20
2023-05-22T06:31:49.744Z,11.90
2023-05-22T06:36:52.378Z,12.90
2023-05-22T06:41:54.996Z,11.20
2023-05-22T06:46:57.919Z,10.30
2023-05-22T06:52:01.475Z,7.70
2023-05-22T06:57:05.113Z,8.50
2023-05-22T07:02:07.859Z,7.50
2023-05-22T07:07:11.277Z,7.10
2023-05-22T07:12:13.893Z,8.00
2023-05-22T07:17:16.523Z,10.70
2023-05-22T07:22:20.161Z,6.80
2023-05-22T07:27:22.715Z,7.00
2023-05-22T07:32:25.520Z,6.40
2023-05-22T07:37:28.267Z,7.20
2023-05-22T07:42:31.188Z,4.90
2023-05-22T07:47:33.875Z,5.60
2023-05-22T07:52:36.801Z,6.70
2023-05-22T07:57:39.424Z,4.10
2023-05-22T08:02:42.100Z,5.10
2023-05-22T08:07:44.812Z,7.30
2023-05-22T08:12:47.447Z,5.50
2023-05-22T08:17:50.081Z,3.80
2023-05-22T08:22:52.963Z,4.20
2023-05-22T08:27:55.664Z,5.20
2023-05-22T08:32:58.254Z,3.70
2023-05-22T08:38:00.916Z,5.80
2023-05-22T08:43:05.471Z,3.30
2023-05-22T08:53:15.893Z,4.90
2023-05-22T08:58:19.166Z,2.30
2023-05-22T09:03:23.148Z,4.90
2023-05-22T09:08:26.266Z,3.80
2023-05-22T09:13:30.935Z,6.50
2023-05-22T09:18:33.602Z,4.30
2023-05-22T09:23:36.333Z,3.50
2023-05-22T09:28:39.301Z,5.70
2023-05-22T09:33:44.295Z,5.70
2023-05-22T09:38:46.896Z,8.00
2023-05-22T09:43:50.827Z,3.20
2023-05-22T09:48:54.182Z,4.40
2023-05-22T09:54:03.906Z,3.40
2023-05-22T09:59:09.221Z,2.20
2023-05-22T10:04:16.280Z,2.60
2023-05-22T10:09:23.604Z,3.10
2023-05-22T10:14:28.239Z,3.10
2023-05-22T10:19:33.152Z,3.40
2023-05-22T10:24:37.163Z,2.70
2023-05-22T10:29:58.218Z,2.90
2023-05-22T10:35:21.751Z,5.10
2023-05-22T10:40:30.241Z,2.80
2023-05-22T10:45:33.504Z,3.10
2023-05-22T10:50:36.482Z,5.00
2023-05-22T10:55:47.911Z,13.00
2023-05-22T11:01:08.198Z,8.40
2023-05-22T11:06:49.838Z,4.90
2023-05-22T11:12:16.245Z,5.60
2023-05-22T11:17:28.097Z,5.50
2023-05-22T11:22:41.268Z,3.80
2023-05-22T11:27:47.331Z,3.90
2023-05-22T11:32:50.169Z,3.20
2023-05-22T11:37:55.814Z,4.90
2023-05-22T11:42:59.061Z,3.90
2023-05-22T11:48:01.964Z,6.10
2023-05-22T11:53:04.643Z,4.00
2023-05-22T11:58:07.263Z,4.00
2023-05-22T12:03:09.992Z,5.20
2023-05-22T12:08:12.889Z,4.90
2023-05-22T12:13:15.664Z,2.60
2023-05-22T12:18:19.573Z,2.60
2023-05-22T12:23:23.946Z,4.10
2023-05-22T12:28:27.213Z,4.80
2023-05-22T12:33:30.959Z,2.60
2023-05-22T12:38:35.419Z,2.70
2023-05-22T12:43:38.323Z,2.60
2023-05-22T12:48:40.913Z,2.40
2023-05-22T12:53:43.499Z,4.10
2023-05-22T12:58:46.125Z,6.40
2023-05-22T13:03:48.800Z,8.60
2023-05-22T13:08:51.402Z,3.10
2023-05-22T13:13:53.938Z,5.20
2023-05-22T13:18:56.549Z,3.50
2023-05-22T13:23:59.565Z,4.50
2023-05-22T13:29:02.253Z,3.20
2023-05-22T13:34:05.434Z,2.90
2023-05-22T13:39:08.171Z,3.30
2023-05-22T13:44:10.879Z,3.70
2023-05-22T13:54:16.592Z,4.40
2023-05-22T13:59:19.186Z,1.90
2023-05-22T14:04:21.887Z,3.20
2023-05-22T14:09:24.862Z,2.20
2023-05-22T14:14:27.512Z,2.90
2023-05-22T14:19:30.249Z,2.70
2023-05-22T14:24:33.192Z,6.20
2023-05-22T14:29:36.029Z,4.00
2023-05-22T14:39:41.180Z,3.70
2023-05-22T14:44:43.775Z,3.80
2023-05-22T14:49:46.372Z,5.10
2023-05-22T14:54:48.945Z,8.10
2023-05-22T14:59:51.521Z,6.60
2023-05-22T15:04:54.166Z,4.80
2023-05-22T15:09:56.868Z,7.00
2023-05-22T15:14:59.600Z,3.60
2023-05-22T15:20:02.313Z,4.00
2023-05-22T15:25:07.630Z,6.80
2023-05-22T15:30:10.698Z,3.40
2023-05-22T15:35:16.513Z,2.80
2023-05-22T15:40:22.617Z,6.70
2023-05-22T15:45:25.354Z,3.00
2023-05-22T15:50:28.336Z,5.70
2023-05-22T15:55:31.033Z,2.90
2023-05-22T16:00:38.670Z,8.80
2023-05-22T16:05:41.642Z,4.50
2023-05-22T16:10:46.984Z,6.20
2023-05-22T16:15:49.768Z,5.30
2023-05-22T16:20:52.491Z,4.40
2023-05-22T16:25:55.126Z,3.00
2023-05-22T16:30:57.740Z,8.70
2023-05-22T16:36:00.322Z,6.30
2023-05-22T16:41:02.990Z,5.00
2023-05-22T16:46:06.075Z,5.00
2023-05-22T16:51:09.386Z,5.50
2023-05-22T16:56:12.724Z,4.10
2023-05-22T17:01:15.364Z,4.80
2023-05-22T17:06:20.878Z,3.70
2023-05-22T17:11:26.068Z,5.50
2023-05-22T17:16:28.708Z,9.80
2023-05-22T17:21:31.364Z,8.50
2023-05-22T17:26:34.366Z,12.10
2023-05-22T17:31:39.072Z,8.60
2023-05-22T17:36:44.720Z,6.40
2023-05-22T17:41:47.772Z,10.10
2023-05-22T17:46:51.063Z,14.30
2023-05-22T17:51:53.720Z,7.20
2023-05-22T17:56:56.312Z,10.70
2023-05-22T18:01:59.072Z,6.50
2023-05-22T18:07:03.823Z,6.30
2023-05-22T18:12:08.130Z,6.50
2023-05-22T18:17:13.333Z,6.20
2023-05-22T18:22:17.338Z,6.00
2023-05-22T18:27:20.652Z,7.40
2023-05-22T18:32:23.852Z,7.60
2023-05-22T18:37:27.486Z,8.60
2023-05-22T18:42:32.203Z,6.30
2023-05-22T18:47:36.309Z,12.20
2023-05-22T18:52:40.018Z,6.80
2023-05-22T18:57:42.644Z,11.60
2023-05-22T19:02:45.311Z,5.60
2023-05-22T19:07:48.112Z,8.80
2023-05-22T19:12:50.697Z,8.70
2023-05-22T19:17:53.350Z,10.10
2023-05-22T19:22:57.366Z,9.10
2023-05-22T19:27:59.978Z,8.30
2023-05-22T19:33:02.700Z,9.00
2023-05-22T19:38:05.941Z,6.30
2023-05-22T19:43:08.538Z,8.20
2023-05-22T19:48:11.567Z,9.70
2023-05-22T19:53:14.954Z,7.60
2023-05-22T19:58:18.525Z,6.60
2023-05-22T20:03:23.227Z,5.40
2023-05-22T20:08:27.057Z,7.60
2023-05-22T20:13:29.752Z,6.30
2023-05-22T20:18:32.363Z,8.20
2023-05-22T20:23:35.395Z,6.40
2023-05-22T20:28:38.656Z,9.40
2023-05-22T20:33:41.407Z,6.90
2023-05-22T20:38:44.303Z,7.60
2023-05-22T20:43:47.012Z,11.20
2023-05-22T20:48:51.433Z,10.10
2023-05-22T20:53:54.093Z,14.00
2023-05-22T20:58:56.784Z,10.60
2023-05-22T21:03:59.533Z,7.60
2023-05-22T21:09:02.326Z,8.40
2023-05-22T21:14:04.966Z,10.40
2023-05-22T21:19:07.784Z,6.60
2023-05-22T21:24:10.966Z,8.70
2023-05-22T21:29:13.627Z,11.50
2023-05-22T21:34:16.464Z,9.00
2023-05-22T21:39:19.077Z,9.40
2023-05-22T21:44:21.694Z,10.60
2023-05-22T21:49:24.275Z,9.00
2023-05-22T21:54:26.933Z,9.80
2023-05-22T21:59:29.632Z,13.00
2023-05-22T22:04:32.587Z,8.80
2023-05-22T22:09:35.323Z,9.90
2023-05-22T22:14:37.906Z,9.30
2023-05-22T22:19:41.828Z,7.70
2023-05-22T22:24:45.828Z,11.40
2023-05-22T22:29:49.592Z,11.90
2023-05-22T22:34:54.003Z,9.50
2023-05-22T22:39:56.775Z,10.00
2023-05-22T22:44:59.451Z,13.00
2023-05-22T22:50:02.672Z,9.00
2023-05-22T22:55:06.919Z,9.00
2023-05-22T23:00:15.299Z,8.60
2023-05-22T23:05:20.447Z,7.70
2023-05-22T23:10:24.457Z,11.30
2023-05-22T23:15:27.090Z,12.50
2023-05-22T23:20:29.905Z,10.90
2023-05-22T23:25:32.521Z,11.80
2023-05-22T23:30:35.327Z,9.20
2023-05-22T23:35:38.524Z,11.30
2023-05-22T23:40:41.334Z,9.40
2023-05-22T23:45:43.948Z,8.20
2023-05-22T23:50:46.619Z,11.50
2023-05-22T23:55:49.307Z,7.70
